Lane, Nevada
Current Conditions -  °F | °C
As of 6:53 PM on Monday 26 Jan 2015 (Local Time) from KELY Reporting Station
Clear Clear  
Wind Chill: 24°   Ceiling: Unl
Heat Index: 31°   Visibility: 10mi
Dew Point: 21°   Wind: 7mph
Humidity: 67%   Direction: 180°S
Pressure: 30.21"   Gusts: NA
Location:  39.5572°N, 115.033°W
Report Text: KELY 270253Z AUTO 18006KT 10SM CLR M01/M06 A3021 RMK AO2 SLP251 T10061061 53003
Loading
Personal Weather Stations






























Interactive Weather Map New forecast layout! Learn more

10-Day Weather Forecast

Advertisements
Track Severe Weather on mobile